Koushinmaru No.5 — JL6695 — position and weather

sailwx.info

Track history (hours):
 
Tides and Currents Weather Stations Pressure Air Temp Water Temp Dewpoint Dewpoint Depression Visibility Wind Speed Wind Dir Waves Ship Positions

Koushinmaru No.5

Last reported at 2017-Mar-28 07:07 UTC. Time now 2017-Mar-29 15:05 UTC.
Position N 33°57' E 132°42'.

Length 75 m; draft 5 m.

Type: Cargo ship. MMSI: 431301703.

Date/timePositionNaut miles runAvg speedWind from/ knotsBaromVisibWave heightAir tempDewpointWater temp
2017-Mar-28 07:07N 33°57' E 132°42'5 8.3
2017-Mar-28 06:30N 33°54' E 132°37'9 9.2
2017-Mar-28 05:31N 33°47' E 132°30'8 0.2
2017-Mar-26 08:30N 33°45' E 132°20'1111.5
2017-Mar-26 07:33N 33°50' E 132°32'1212.0
2017-Mar-26 06:33N 33°58' E 132°43'12112.0
2017-Mar-25 20:25N 34°37' E 135°02'1112.5
2017-Mar-25 19:33N 34°36' E 135°15'1010.3
2017-Mar-25 18:33N 34°35' E 135°27'1 0.1
2017-Mar-25 11:33N 34°35' E 135°27'0 0.1
2017-Mar-25 10:33N 34°35' E 135°27'8 7.8
2017-Mar-25 09:33N 34°35' E 135°17'1110.7
2017-Mar-25 08:33N 34°35' E 135°04'12610.5
2017-Mar-24 20:31N 33°55' E 132°39'1111.4
2017-Mar-24 19:33N 33°48' E 132°29'5 0.2
2017-Mar-23 21:07N 33°46' E 132°24'711.9
2017-Mar-23 20:32N 33°50' E 132°31'1111.5
2017-Mar-23 19:33N 33°57' E 132°41'12410.9
2017-Mar-23 08:15N 34°36' E 135°03'811.5
2017-Mar-23 07:33N 34°34' E 135°13'10 9.8
2017-Mar-23 06:33N 34°31' E 135°24'0 0.0
2017-Mar-23 05:29N 34°31' E 135°24'0 0.0
2017-Mar-23 04:33N 34°31' E 135°24'0 0.0
2017-Mar-23 03:33N 34°31' E 135°24'0 0.0
2017-Mar-23 02:33N 34°31' E 135°24'0 0.0
2017-Mar-23 01:33N 34°31' E 135°24'0 0.0
2017-Mar-23 00:33N 34°31' E 135°24'0 0.0
2017-Mar-22 21:33N 34°31' E 135°24'0 0.0
2017-Mar-22 20:33N 34°31' E 135°24'0 0.0
2017-Mar-22 19:33N 34°31' E 135°24'0 0.0
2017-Mar-22 18:33N 34°31' E 135°24'0 0.0
2017-Mar-22 17:33N 34°31' E 135°24'0 0.0
2017-Mar-22 16:33N 34°31' E 135°24'0 0.0
2017-Mar-22 15:33N 34°31' E 135°24'0 0.0
2017-Mar-22 14:33N 34°31' E 135°24'0 0.0
2017-Mar-22 13:33N 34°31' E 135°24'0 0.0
2017-Mar-22 12:33N 34°31' E 135°24'0 0.0
2017-Mar-22 11:33N 34°31' E 135°24'0 0.0
2017-Mar-22 10:33N 34°31' E 135°24'0 0.0
2017-Mar-22 09:33N 34°31' E 135°24'0 0.0
2017-Mar-22 08:33N 34°31' E 135°24'0 0.0
2017-Mar-22 07:33N 34°31' E 135°24'0 0.0
2017-Mar-22 06:33N 34°31' E 135°24'3 2.8
2017-Mar-22 05:33N 34°33' E 135°21'0 0.0
2017-Mar-22 04:34N 34°33' E 135°21'0 0.0
2017-Mar-22 03:27N 34°33' E 135°21'0 0.0
2017-Mar-22 02:21N 34°33' E 135°21'0 0.1
2017-Mar-22 01:30N 34°33' E 135°21'0 0.0
2017-Mar-22 00:33N 34°33' E 135°21'0 0.0
2017-Mar-21 23:33N 34°33' E 135°21'0 0.0
2017-Mar-21 22:33N 34°33' E 135°21'0 0.0
2017-Mar-21 21:33N 34°33' E 135°21'0 0.0
2017-Mar-21 20:33N 34°33' E 135°21'0 0.0
2017-Mar-21 19:33N 34°33' E 135°21'0 0.0
2017-Mar-21 18:33N 34°33' E 135°21'0 0.0
2017-Mar-21 17:33N 34°33' E 135°21'0 0.0
2017-Mar-21 16:29N 34°33' E 135°21'0 0.0
2017-Mar-21 15:33N 34°33' E 135°21'0 0.0
2017-Mar-21 14:33N 34°33' E 135°21'0 0.0
2017-Mar-21 13:33N 34°33' E 135°21'0 0.0
2017-Mar-21 12:28N 34°33' E 135°21'0 0.0
2017-Mar-21 11:30N 34°33' E 135°21'0 0.0
2017-Mar-21 10:33N 34°33' E 135°21'0 0.0
2017-Mar-21 09:33N 34°33' E 135°21'0 0.0
2017-Mar-21 08:33N 34°33' E 135°21'0 0.0
2017-Mar-21 07:31N 34°33' E 135°21'0 0.0
2017-Mar-21 06:33N 34°33' E 135°21'0 0.0
2017-Mar-21 05:33N 34°33' E 135°21'0 0.0
2017-Mar-21 04:33N 34°33' E 135°21'0 0.1
2017-Mar-21 03:33N 34°33' E 135°21'1110.6
2017-Mar-21 02:30N 34°26' E 135°11'1211.4
2017-Mar-21 01:29N 34°16' E 135°03'  
Track history (hours):
 
Tides and Currents Weather Stations Pressure Air Temp Water Temp Dewpoint Dewpoint Depression Visibility Wind Speed Wind Dir Waves Ship Positions

Koushinmaru No.5

Last reported at 2017-Mar-28 07:07 UTC. Time now 2017-Mar-29 15:05 UTC.
Position N 33°57' E 132°42'.

Length 75 m; draft 5 m.

Type: Cargo ship. MMSI: 431301703.

Date/timePositionNaut miles runAvg speedWind from/ knotsBaromVisibWave heightAir tempDewpointWater temp
2017-Mar-28 07:07N 33°57' E 132°42'5 8.3
2017-Mar-28 06:30N 33°54' E 132°37'9 9.2
2017-Mar-28 05:31N 33°47' E 132°30'8 0.2
2017-Mar-26 08:30N 33°45' E 132°20'1111.5
2017-Mar-26 07:33N 33°50' E 132°32'1212.0
2017-Mar-26 06:33N 33°58' E 132°43'12112.0
2017-Mar-25 20:25N 34°37' E 135°02'1112.5
2017-Mar-25 19:33N 34°36' E 135°15'1010.3
2017-Mar-25 18:33N 34°35' E 135°27'1 0.1
2017-Mar-25 11:33N 34°35' E 135°27'0 0.1
2017-Mar-25 10:33N 34°35' E 135°27'8 7.8
2017-Mar-25 09:33N 34°35' E 135°17'1110.7
2017-Mar-25 08:33N 34°35' E 135°04'12610.5
2017-Mar-24 20:31N 33°55' E 132°39'1111.4
2017-Mar-24 19:33N 33°48' E 132°29'5 0.2
2017-Mar-23 21:07N 33°46' E 132°24'711.9
2017-Mar-23 20:32N 33°50' E 132°31'1111.5
2017-Mar-23 19:33N 33°57' E 132°41'12410.9
2017-Mar-23 08:15N 34°36' E 135°03'811.5
2017-Mar-23 07:33N 34°34' E 135°13'10 9.8
2017-Mar-23 06:33N 34°31' E 135°24'0 0.0
2017-Mar-23 05:29N 34°31' E 135°24'0 0.0
2017-Mar-23 04:33N 34°31' E 135°24'0 0.0
2017-Mar-23 03:33N 34°31' E 135°24'0 0.0
2017-Mar-23 02:33N 34°31' E 135°24'0 0.0
2017-Mar-23 01:33N 34°31' E 135°24'0 0.0
2017-Mar-23 00:33N 34°31' E 135°24'0 0.0
2017-Mar-22 21:33N 34°31' E 135°24'0 0.0
2017-Mar-22 20:33N 34°31' E 135°24'0 0.0
2017-Mar-22 19:33N 34°31' E 135°24'0 0.0
2017-Mar-22 18:33N 34°31' E 135°24'0 0.0
2017-Mar-22 17:33N 34°31' E 135°24'0 0.0
2017-Mar-22 16:33N 34°31' E 135°24'0 0.0
2017-Mar-22 15:33N 34°31' E 135°24'0 0.0
2017-Mar-22 14:33N 34°31' E 135°24'0 0.0
2017-Mar-22 13:33N 34°31' E 135°24'0 0.0
2017-Mar-22 12:33N 34°31' E 135°24'0 0.0
2017-Mar-22 11:33N 34°31' E 135°24'0 0.0
2017-Mar-22 10:33N 34°31' E 135°24'0 0.0
2017-Mar-22 09:33N 34°31' E 135°24'0 0.0
2017-Mar-22 08:33N 34°31' E 135°24'0 0.0
2017-Mar-22 07:33N 34°31' E 135°24'0 0.0
2017-Mar-22 06:33N 34°31' E 135°24'3 2.8
2017-Mar-22 05:33N 34°33' E 135°21'0 0.0
2017-Mar-22 04:34N 34°33' E 135°21'0 0.0
2017-Mar-22 03:27N 34°33' E 135°21'0 0.0
2017-Mar-22 02:21N 34°33' E 135°21'0 0.1
2017-Mar-22 01:30N 34°33' E 135°21'0 0.0
2017-Mar-22 00:33N 34°33' E 135°21'0 0.0
2017-Mar-21 23:33N 34°33' E 135°21'0 0.0
2017-Mar-21 22:33N 34°33' E 135°21'0 0.0
2017-Mar-21 21:33N 34°33' E 135°21'0 0.0
2017-Mar-21 20:33N 34°33' E 135°21'0 0.0
2017-Mar-21 19:33N 34°33' E 135°21'0 0.0
2017-Mar-21 18:33N 34°33' E 135°21'0 0.0
2017-Mar-21 17:33N 34°33' E 135°21'0 0.0
2017-Mar-21 16:29N 34°33' E 135°21'0 0.0
2017-Mar-21 15:33N 34°33' E 135°21'0 0.0
2017-Mar-21 14:33N 34°33' E 135°21'0 0.0
2017-Mar-21 13:33N 34°33' E 135°21'0 0.0
2017-Mar-21 12:28N 34°33' E 135°21'0 0.0
2017-Mar-21 11:30N 34°33' E 135°21'0 0.0
2017-Mar-21 10:33N 34°33' E 135°21'0 0.0
2017-Mar-21 09:33N 34°33' E 135°21'0 0.0
2017-Mar-21 08:33N 34°33' E 135°21'0 0.0
2017-Mar-21 07:31N 34°33' E 135°21'0 0.0
2017-Mar-21 06:33N 34°33' E 135°21'0 0.0
2017-Mar-21 05:33N 34°33' E 135°21'0 0.0
2017-Mar-21 04:33N 34°33' E 135°21'0 0.1
2017-Mar-21 03:33N 34°33' E 135°21'1110.6
2017-Mar-21 02:30N 34°26' E 135°11'1211.4
2017-Mar-21 01:29N 34°16' E 135°03'  

Dump ship's entire track history